sensor_id;sensor_type;location;lat;lon;timestamp;pressure;altitude;pressure_sealevel;temperature;humidity
29907;BME280;16776;50.958;10.994;2022-10-13T00:00:22;99014.47;;;8.84;98.32
29907;BME280;16776;50.958;10.994;2022-10-13T00:02:48;99023.88;;;8.86;98.58
29907;BME280;16776;50.958;10.994;2022-10-13T00:05:16;99024.66;;;8.90;98.68
29907;BME280;16776;50.958;10.994;2022-10-13T00:07:43;99015.31;;;8.87;98.27
29907;BME280;16776;50.958;10.994;2022-10-13T00:10:09;99015.31;;;8.86;97.86
29907;BME280;16776;50.958;10.994;2022-10-13T00:12:37;99011.06;;;8.83;97.91
29907;BME280;16776;50.958;10.994;2022-10-13T00:15:05;99008.56;;;8.79;97.86
29907;BME280;16776;50.958;10.994;2022-10-13T00:17:32;99014.63;;;8.73;98.36
29907;BME280;16776;50.958;10.994;2022-10-13T00:20:00;99017.28;;;8.69;97.51
29907;BME280;16776;50.958;10.994;2022-10-13T00:22:28;99007.88;;;8.66;97.69
29907;BME280;16776;50.958;10.994;2022-10-13T00:24:55;99007.13;;;8.58;98.39
29907;BME280;16776;50.958;10.994;2022-10-13T00:27:21;99000.34;;;8.54;97.87
29907;BME280;16776;50.958;10.994;2022-10-13T00:29:47;99003.81;;;8.50;98.38
29907;BME280;16776;50.958;10.994;2022-10-13T00:32:14;99005.59;;;8.43;98.05
29907;BME280;16776;50.958;10.994;2022-10-13T00:34:41;99009.03;;;8.42;98.61
29907;BME280;16776;50.958;10.994;2022-10-13T00:37:08;99009.91;;;8.40;98.82
29907;BME280;16776;50.958;10.994;2022-10-13T00:39:36;99014.19;;;8.41;98.63
29907;BME280;16776;50.958;10.994;2022-10-13T00:42:03;99021.09;;;8.36;98.34
29907;BME280;16776;50.958;10.994;2022-10-13T00:44:59;99009.84;;;8.44;99.49
29907;BME280;16776;50.958;10.994;2022-10-13T00:47:27;99006.56;;;8.35;99.19
29907;BME280;16776;50.958;10.994;2022-10-13T00:49:56;99017.69;;;8.34;98.76
29907;BME280;16776;50.958;10.994;2022-10-13T00:52:24;99033.91;;;8.36;99.20
29907;BME280;16776;50.958;10.994;2022-10-13T00:54:54;99014.19;;;8.39;99.23
29907;BME280;16776;50.958;10.994;2022-10-13T00:57:21;99030.50;;;8.37;99.21
29907;BME280;16776;50.958;10.994;2022-10-13T00:59:48;99031.34;;;8.37;98.76
29907;BME280;16776;50.958;10.994;2022-10-13T01:02:15;99027.88;;;8.38;99.71
29907;BME280;16776;50.958;10.994;2022-10-13T01:04:44;99021.03;;;8.40;99.04
29907;BME280;16776;50.958;10.994;2022-10-13T01:07:12;99018.44;;;8.42;99.95
29907;BME280;16776;50.958;10.994;2022-10-13T01:09:40;99011.63;;;8.41;99.64
29907;BME280;16776;50.958;10.994;2022-10-13T01:12:16;99004.69;;;8.46;100.00
29907;BME280;16776;50.958;10.994;2022-10-13T01:14:52;99005.50;;;8.51;100.00
29907;BME280;16776;50.958;10.994;2022-10-13T01:17:28;99004.59;;;8.55;100.00
29907;BME280;16776;50.958;10.994;2022-10-13T01:20:21;99003.63;;;8.63;100.00
29907;BME280;16776;50.958;10.994;2022-10-13T01:23:08;98995.91;;;8.65;100.00
29907;BME280;16776;50.958;10.994;2022-10-13T01:25:54;98989.97;;;8.61;100.00
29907;BME280;16776;50.958;10.994;2022-10-13T01:28:38;99001.78;;;8.73;100.00
29907;BME280;16776;50.958;10.994;2022-10-13T01:31:18;98996.66;;;8.75;100.00
29907;BME280;16776;50.958;10.994;2022-10-13T01:33:51;98988.88;;;8.79;100.00
29907;BME280;16776;50.958;10.994;2022-10-13T01:36:25;98990.56;;;8.80;100.00
29907;BME280;16776;50.958;10.994;2022-10-13T01:39:01;98991.38;;;8.84;100.00
29907;BME280;16776;50.958;10.994;2022-10-13T01:41:34;98988.78;;;8.84;100.00
29907;BME280;16776;50.958;10.994;2022-10-13T01:44:05;98988.78;;;8.87;100.00
29907;BME280;16776;50.958;10.994;2022-10-13T01:46:36;98977.66;;;8.86;99.94
29907;BME280;16776;50.958;10.994;2022-10-13T01:49:05;98980.22;;;8.86;100.00
29907;BME280;16776;50.958;10.994;2022-10-13T01:51:33;98977.66;;;8.85;99.43
29907;BME280;16776;50.958;10.994;2022-10-13T01:54:00;98979.44;;;8.81;99.98
29907;BME280;16776;50.958;10.994;2022-10-13T01:56:27;98970.91;;;8.78;99.64
29907;BME280;16776;50.958;10.994;2022-10-13T01:58:55;98978.66;;;8.76;99.23
29907;BME280;16776;50.958;10.994;2022-10-13T02:01:33;98970.97;;;8.73;99.60
29907;BME280;16776;50.958;10.994;2022-10-13T02:04:13;98968.50;;;8.67;99.04
29907;BME280;16776;50.958;10.994;2022-10-13T02:06:47;98963.47;;;8.58;99.47
29907;BME280;16776;50.958;10.994;2022-10-13T02:09:18;98968.59;;;8.59;98.55
29907;BME280;16776;50.958;10.994;2022-10-13T02:11:50;98960.22;;;8.47;99.55
29907;BME280;16776;50.958;10.994;2022-10-13T02:14:21;98970.53;;;8.44;100.00
29907;BME280;16776;50.958;10.994;2022-10-13T02:16:52;98964.56;;;8.39;99.57
29907;BME280;16776;50.958;10.994;2022-10-13T02:19:21;98968.06;;;8.36;99.78
29907;BME280;16776;50.958;10.994;2022-10-13T02:21:49;98954.44;;;8.31;99.40
29907;BME280;16776;50.958;10.994;2022-10-13T02:24:16;98958.75;;;8.28;99.71
29907;BME280;16776;50.958;10.994;2022-10-13T02:26:44;98951.09;;;8.24;100.00
29907;BME280;16776;50.958;10.994;2022-10-13T02:29:12;98951.13;;;8.21;100.00
29907;BME280;16776;50.958;10.994;2022-10-13T02:31:40;98945.16;;;8.19;100.00
29907;BME280;16776;50.958;10.994;2022-10-13T02:34:06;98953.75;;;8.18;100.00
29907;BME280;16776;50.958;10.994;2022-10-13T02:36:35;98957.97;;;8.19;100.00
29907;BME280;16776;50.958;10.994;2022-10-13T02:39:03;98952.00;;;8.19;100.00
29907;BME280;16776;50.958;10.994;2022-10-13T02:41:30;98952.84;;;8.21;100.00
29907;BME280;16776;50.958;10.994;2022-10-13T02:43:56;98950.25;;;8.24;100.00
29907;BME280;16776;50.958;10.994;2022-10-13T02:46:23;98948.47;;;8.28;100.00
29907;BME280;16776;50.958;10.994;2022-10-13T02:48:49;98948.44;;;8.31;100.00
29907;BME280;16776;50.958;10.994;2022-10-13T02:51:16;98947.53;;;8.33;100.00
29907;BME280;16776;50.958;10.994;2022-10-13T02:53:44;98942.38;;;8.36;100.00
29907;BME280;16776;50.958;10.994;2022-10-13T02:56:10;98947.53;;;8.35;100.00
29907;BME280;16776;50.958;10.994;2022-10-13T02:58:37;98939.06;;;8.28;100.00
29907;BME280;16776;50.958;10.994;2022-10-13T03:01:05;98938.91;;;8.40;100.00
29907;BME280;16776;50.958;10.994;2022-10-13T03:03:31;98945.75;;;8.41;100.00
29907;BME280;16776;50.958;10.994;2022-10-13T03:05:58;98948.28;;;8.43;100.00
29907;BME280;16776;50.958;10.994;2022-10-13T03:08:25;98945.66;;;8.46;100.00
29907;BME280;16776;50.958;10.994;2022-10-13T03:10:53;98943.94;;;8.49;100.00
29907;BME280;16776;50.958;10.994;2022-10-13T03:13:19;98937.94;;;8.49;100.00
29907;BME280;16776;50.958;10.994;2022-10-13T03:15:46;98936.19;;;8.51;100.00
29907;BME280;16776;50.958;10.994;2022-10-13T03:18:13;98937.03;;;8.53;100.00
29907;BME280;16776;50.958;10.994;2022-10-13T03:20:39;98938.72;;;8.55;100.00
29907;BME280;16776;50.958;10.994;2022-10-13T03:23:06;98929.28;;;8.56;100.00
29907;BME280;16776;50.958;10.994;2022-10-13T03:25:33;98931.81;;;8.57;100.00
29907;BME280;16776;50.958;10.994;2022-10-13T03:28:00;98931.78;;;8.60;100.00
29907;BME280;16776;50.958;10.994;2022-10-13T03:30:27;98932.66;;;8.59;100.00
29907;BME280;16776;50.958;10.994;2022-10-13T03:32:54;98930.06;;;8.61;100.00
29907;BME280;16776;50.958;10.994;2022-10-13T03:35:20;98922.34;;;8.62;100.00
29907;BME280;16776;50.958;10.994;2022-10-13T03:37:47;98923.16;;;8.64;100.00
29907;BME280;16776;50.958;10.994;2022-10-13T03:40:13;98918.88;;;8.65;100.00
29907;BME280;16776;50.958;10.994;2022-10-13T03:42:40;98924.88;;;8.65;100.00
29907;BME280;16776;50.958;10.994;2022-10-13T03:45:08;98921.34;;;8.71;100.00
29907;BME280;16776;50.958;10.994;2022-10-13T03:47:35;98916.28;;;8.70;100.00
29907;BME280;16776;50.958;10.994;2022-10-13T03:50:03;98919.66;;;8.70;100.00
29907;BME280;16776;50.958;10.994;2022-10-13T03:52:29;98923.94;;;8.71;100.00
29907;BME280;16776;50.958;10.994;2022-10-13T03:54:56;98919.63;;;8.72;100.00
29907;BME280;16776;50.958;10.994;2022-10-13T03:57:23;98922.22;;;8.72;100.00
29907;BME280;16776;50.958;10.994;2022-10-13T03:59:49;98918.78;;;8.71;100.00
29907;BME280;16776;50.958;10.994;2022-10-13T04:02:17;98920.50;;;8.72;100.00
29907;BME280;16776;50.958;10.994;2022-10-13T04:04:44;98918.00;;;8.69;100.00
29907;BME280;16776;50.958;10.994;2022-10-13T04:07:11;98895.00;;;8.58;100.00
29907;BME280;16776;50.958;10.994;2022-10-13T04:09:38;98908.59;;;8.68;100.00
29907;BME280;16776;50.958;10.994;2022-10-13T04:12:04;98907.72;;;8.68;100.00
29907;BME280;16776;50.958;10.994;2022-10-13T04:14:31;98893.19;;;8.68;100.00
29907;BME280;16776;50.958;10.994;2022-10-13T04:16:58;98894.88;;;8.69;100.00
29907;BME280;16776;50.958;10.994;2022-10-13T04:19:25;98887.13;;;8.72;100.00
29907;BME280;16776;50.958;10.994;2022-10-13T04:21:52;98889.69;;;8.72;100.00
29907;BME280;16776;50.958;10.994;2022-10-13T04:24:18;98893.94;;;8.75;100.00
29907;BME280;16776;50.958;10.994;2022-10-13T04:26:45;98898.13;;;8.79;100.00
29907;BME280;16776;50.958;10.994;2022-10-13T04:29:11;98890.41;;;8.82;100.00
29907;BME280;16776;50.958;10.994;2022-10-13T04:31:39;98893.75;;;8.85;100.00
29907;BME280;16776;50.958;10.994;2022-10-13T04:34:06;98900.59;;;8.88;100.00
29907;BME280;16776;50.958;10.994;2022-10-13T04:36:34;98897.94;;;8.92;100.00
29907;BME280;16776;50.958;10.994;2022-10-13T04:39:01;98901.34;;;8.93;100.00
29907;BME280;16776;50.958;10.994;2022-10-13T04:41:27;98912.41;;;8.96;100.00
29907;BME280;16776;50.958;10.994;2022-10-13T04:43:54;98910.69;;;8.98;100.00
29907;BME280;16776;50.958;10.994;2022-10-13T04:46:22;98914.84;;;9.05;100.00
29907;BME280;16776;50.958;10.994;2022-10-13T04:48:50;98910.47;;;9.12;100.00
29907;BME280;16776;50.958;10.994;2022-10-13T04:51:18;98906.84;;;9.22;100.00
29907;BME280;16776;50.958;10.994;2022-10-13T04:53:47;98905.06;;;9.27;100.00
29907;BME280;16776;50.958;10.994;2022-10-13T04:56:15;98910.16;;;9.29;100.00
29907;BME280;16776;50.958;10.994;2022-10-13T04:58:43;98906.78;;;9.27;100.00
29907;BME280;16776;50.958;10.994;2022-10-13T05:01:12;98902.56;;;9.23;100.00
29907;BME280;16776;50.958;10.994;2022-10-13T05:03:39;98900.94;;;9.19;100.00
29907;BME280;16776;50.958;10.994;2022-10-13T05:06:12;98900.00;;;9.21;100.00
29907;BME280;16776;50.958;10.994;2022-10-13T05:08:39;98906.22;;;9.10;100.00
29907;BME280;16776;50.958;10.994;2022-10-13T05:11:07;98894.28;;;9.07;100.00
29907;BME280;16776;50.958;10.994;2022-10-13T05:13:35;98892.66;;;9.01;100.00
29907;BME280;16776;50.958;10.994;2022-10-13T05:16:05;98886.63;;;9.02;100.00
29907;BME280;16776;50.958;10.994;2022-10-13T05:18:31;98890.16;;;8.95;100.00
29907;BME280;16776;50.958;10.994;2022-10-13T05:21:05;98886.78;;;8.93;100.00
29907;BME280;16776;50.958;10.994;2022-10-13T05:23:32;98885.13;;;8.89;100.00
29907;BME280;16776;50.958;10.994;2022-10-13T05:26:00;98897.97;;;8.89;100.00
29907;BME280;16776;50.958;10.994;2022-10-13T05:28:28;98897.19;;;8.86;100.00
29907;BME280;16776;50.958;10.994;2022-10-13T05:30:54;98902.31;;;8.86;100.00
29907;BME280;16776;50.958;10.994;2022-10-13T05:33:21;98905.75;;;8.85;100.00
29907;BME280;16776;50.958;10.994;2022-10-13T05:35:47;98906.59;;;8.85;100.00
29907;BME280;16776;50.958;10.994;2022-10-13T05:38:14;98910.88;;;8.85;100.00
29907;BME280;16776;50.958;10.994;2022-10-13T05:40:40;98916.88;;;8.85;100.00
29907;BME280;16776;50.958;10.994;2022-10-13T05:45:36;98916.84;;;8.88;100.00
29907;BME280;16776;50.958;10.994;2022-10-13T05:48:03;98924.56;;;8.87;100.00
29907;BME280;16776;50.958;10.994;2022-10-13T05:50:29;98920.28;;;8.87;100.00
29907;BME280;16776;50.958;10.994;2022-10-13T05:52:56;98916.84;;;8.87;100.00
29907;BME280;16776;50.958;10.994;2022-10-13T05:55:22;98911.72;;;8.87;100.00
29907;BME280;16776;50.958;10.994;2022-10-13T05:57:51;98914.22;;;8.91;100.00
29907;BME280;16776;50.958;10.994;2022-10-13T06:00:18;98910.84;;;8.88;100.00
29907;BME280;16776;50.958;10.994;2022-10-13T06:02:48;98908.25;;;8.89;100.00
29907;BME280;16776;50.958;10.994;2022-10-13T06:05:18;98905.72;;;8.86;100.00
29907;BME280;16776;50.958;10.994;2022-10-13T06:07:45;98918.59;;;8.83;100.00
29907;BME280;16776;50.958;10.994;2022-10-13T06:10:13;98912.63;;;8.83;100.00
29907;BME280;16776;50.958;10.994;2022-10-13T06:12:40;98905.00;;;8.78;100.00
29907;BME280;16776;50.958;10.994;2022-10-13T06:15:08;98908.41;;;8.80;100.00
29907;BME280;16776;50.958;10.994;2022-10-13T06:17:35;98909.28;;;8.78;100.00
29907;BME280;16776;50.958;10.994;2022-10-13T06:20:04;98911.84;;;8.79;100.00
29907;BME280;16776;50.958;10.994;2022-10-13T06:22:31;98901.66;;;8.73;100.00
29907;BME280;16776;50.958;10.994;2022-10-13T06:24:58;98903.38;;;8.71;100.00
29907;BME280;16776;50.958;10.994;2022-10-13T06:27:24;98894.06;;;8.64;100.00
29907;BME280;16776;50.958;10.994;2022-10-13T06:29:51;98898.31;;;8.68;100.00
29907;BME280;16776;50.958;10.994;2022-10-13T06:32:17;98893.97;;;8.72;100.00
29907;BME280;16776;50.958;10.994;2022-10-13T06:34:44;98893.06;;;8.76;100.00
29907;BME280;16776;50.958;10.994;2022-10-13T06:37:12;98891.28;;;8.81;100.00
29907;BME280;16776;50.958;10.994;2022-10-13T06:39:38;98893.00;;;8.79;100.00
29907;BME280;16776;50.958;10.994;2022-10-13T06:42:05;98899.84;;;8.78;100.00
29907;BME280;16776;50.958;10.994;2022-10-13T06:44:31;98899.06;;;8.76;100.00
29907;BME280;16776;50.958;10.994;2022-10-13T06:46:58;98898.22;;;8.74;100.00
29907;BME280;16776;50.958;10.994;2022-10-13T06:49:25;98903.38;;;8.71;100.00
29907;BME280;16776;50.958;10.994;2022-10-13T06:51:51;98904.31;;;8.67;100.00
29907;BME280;16776;50.958;10.994;2022-10-13T06:54:19;98894.91;;;8.66;100.00
29907;BME280;16776;50.958;10.994;2022-10-13T06:56:46;98895.84;;;8.60;100.00
29907;BME280;16776;50.958;10.994;2022-10-13T06:59:13;98901.88;;;8.58;100.00
29907;BME280;16776;50.958;10.994;2022-10-13T07:01:39;98907.03;;;8.56;100.00
29907;BME280;16776;50.958;10.994;2022-10-13T07:04:06;98900.22;;;8.55;100.00
29907;BME280;16776;50.958;10.994;2022-10-13T07:06:32;98900.22;;;8.54;100.00
29907;BME280;16776;50.958;10.994;2022-10-13T07:09:02;98898.50;;;8.56;100.00
29907;BME280;16776;50.958;10.994;2022-10-13T07:11:30;98893.38;;;8.54;100.00
29907;BME280;16776;50.958;10.994;2022-10-13T07:13:56;98892.53;;;8.52;100.00
29907;BME280;16776;50.958;10.994;2022-10-13T07:16:23;98891.69;;;8.52;100.00
29907;BME280;16776;50.958;10.994;2022-10-13T07:18:49;98898.53;;;8.51;100.00
29907;BME280;16776;50.958;10.994;2022-10-13T07:21:16;98889.13;;;8.52;100.00
29907;BME280;16776;50.958;10.994;2022-10-13T07:23:42;98885.69;;;8.51;100.00
29907;BME280;16776;50.958;10.994;2022-10-13T07:26:10;98886.56;;;8.52;100.00
29907;BME280;16776;50.958;10.994;2022-10-13T07:28:39;98888.25;;;8.53;100.00
29907;BME280;16776;50.958;10.994;2022-10-13T07:31:07;98883.97;;;8.53;100.00
29907;BME280;16776;50.958;10.994;2022-10-13T07:33:35;98886.53;;;8.55;100.00
29907;BME280;16776;50.958;10.994;2022-10-13T07:36:01;98882.22;;;8.57;100.00
29907;BME280;16776;50.958;10.994;2022-10-13T07:38:28;98877.03;;;8.60;100.00
29907;BME280;16776;50.958;10.994;2022-10-13T07:40:54;98873.59;;;8.59;100.00
29907;BME280;16776;50.958;10.994;2022-10-13T07:43:21;98883.81;;;8.64;100.00
29907;BME280;16776;50.958;10.994;2022-10-13T07:45:49;98874.34;;;8.69;100.00
29907;BME280;16776;50.958;10.994;2022-10-13T07:48:15;98874.28;;;8.71;100.00
29907;BME280;16776;50.958;10.994;2022-10-13T07:50:42;98873.38;;;8.76;100.00
29907;BME280;16776;50.958;10.994;2022-10-13T07:53:08;98868.19;;;8.79;100.00
29907;BME280;16776;50.958;10.994;2022-10-13T07:55:35;98872.38;;;8.83;100.00
29907;BME280;16776;50.958;10.994;2022-10-13T07:58:02;98874.84;;;8.89;100.00
29907;BME280;16776;50.958;10.994;2022-10-13T08:00:29;98862.81;;;8.94;100.00
29907;BME280;16776;50.958;10.994;2022-10-13T08:02:56;98866.97;;;9.01;100.00
29907;BME280;16776;50.958;10.994;2022-10-13T08:05:23;98857.47;;;9.05;100.00
29907;BME280;16776;50.958;10.994;2022-10-13T08:07:49;98852.22;;;9.11;100.00
29907;BME280;16776;50.958;10.994;2022-10-13T08:10:16;98846.97;;;9.17;100.00
29907;BME280;16776;50.958;10.994;2022-10-13T08:12:42;98853.72;;;9.24;100.00
29907;BME280;16776;50.958;10.994;2022-10-13T08:15:09;98848.47;;;9.30;100.00
29907;BME280;16776;50.958;10.994;2022-10-13T08:17:36;98857.69;;;9.42;100.00
29907;BME280;16776;50.958;10.994;2022-10-13T08:20:05;98847.16;;;9.56;100.00
29907;BME280;16776;50.958;10.994;2022-10-13T08:22:32;98848.78;;;9.60;100.00
29907;BME280;16776;50.958;10.994;2022-10-13T08:24:59;98854.53;;;9.74;100.00
29907;BME280;16776;50.958;10.994;2022-10-13T08:27:27;98852.56;;;9.87;100.00
29907;BME280;16776;50.958;10.994;2022-10-13T08:29:54;98853.22;;;9.96;100.00
29907;BME280;16776;50.958;10.994;2022-10-13T08:32:21;98863.16;;;10.13;100.00
29907;BME280;16776;50.958;10.994;2022-10-13T08:34:48;98860.28;;;10.27;100.00
29907;BME280;16776;50.958;10.994;2022-10-13T08:37:17;98858.22;;;10.42;100.00
29907;BME280;16776;50.958;10.994;2022-10-13T08:39:45;98859.72;;;10.51;100.00
29907;BME280;16776;50.958;10.994;2022-10-13T08:42:15;98862.03;;;10.64;100.00
29907;BME280;16776;50.958;10.994;2022-10-13T08:44:44;98855.75;;;10.75;100.00
29907;BME280;16776;50.958;10.994;2022-10-13T08:47:17;98850.41;;;10.84;100.00
29907;BME280;16776;50.958;10.994;2022-10-13T08:49:46;98850.38;;;10.85;100.00
29907;BME280;16776;50.958;10.994;2022-10-13T08:52:19;98859.41;;;11.01;100.00
29907;BME280;16776;50.958;10.994;2022-10-13T08:54:45;98857.63;;;11.05;100.00
29907;BME280;16776;50.958;10.994;2022-10-13T08:57:12;98860.84;;;11.13;100.00
29907;BME280;16776;50.958;10.994;2022-10-13T08:59:38;98844.44;;;11.16;100.00
29907;BME280;16776;50.958;10.994;2022-10-13T09:02:10;98842.25;;;11.34;100.00
29907;BME280;16776;50.958;10.994;2022-10-13T09:04:39;98848.19;;;11.38;100.00
29907;BME280;16776;50.958;10.994;2022-10-13T09:07:11;98854.78;;;11.48;100.00
29907;BME280;16776;50.958;10.994;2022-10-13T09:09:41;98845.19;;;11.52;100.00
29907;BME280;16776;50.958;10.994;2022-10-13T09:12:09;98839.91;;;11.58;100.00
29907;BME280;16776;50.958;10.994;2022-10-13T09:14:38;98844.00;;;11.65;100.00
29907;BME280;16776;50.958;10.994;2022-10-13T09:17:13;98841.03;;;11.80;100.00
29907;BME280;16776;50.958;10.994;2022-10-13T09:19:41;98839.28;;;11.80;100.00
29907;BME280;16776;50.958;10.994;2022-10-13T09:22:14;98840.41;;;12.01;100.00
29907;BME280;16776;50.958;10.994;2022-10-13T09:24:46;98836.63;;;12.13;100.00
29907;BME280;16776;50.958;10.994;2022-10-13T09:27:15;98831.63;;;12.35;100.00
29907;BME280;16776;50.958;10.994;2022-10-13T09:29:43;98833.59;;;12.54;100.00
29907;BME280;16776;50.958;10.994;2022-10-13T09:32:14;98836.34;;;12.78;100.00
29907;BME280;16776;50.958;10.994;2022-10-13T09:34:42;98828.25;;;12.88;100.00
29907;BME280;16776;50.958;10.994;2022-10-13T09:37:17;98837.56;;;13.19;100.00
29907;BME280;16776;50.958;10.994;2022-10-13T09:39:46;98825.84;;;13.33;100.00
29907;BME280;16776;50.958;10.994;2022-10-13T09:42:26;98828.44;;;13.58;100.00
29907;BME280;16776;50.958;10.994;2022-10-13T09:44:56;98834.41;;;13.83;100.00
29907;BME280;16776;50.958;10.994;2022-10-13T09:47:22;98824.97;;;14.06;100.00
29907;BME280;16776;50.958;10.994;2022-10-13T09:49:59;98822.09;;;14.35;100.00
29907;BME280;16776;50.958;10.994;2022-10-13T09:52:27;98830.88;;;14.54;100.00
29907;BME280;16776;50.958;10.994;2022-10-13T09:54:57;98822.91;;;14.81;100.00
29907;BME280;16776;50.958;10.994;2022-10-13T09:57:33;98820.97;;;15.06;100.00
29907;BME280;16776;50.958;10.994;2022-10-13T10:00:06;98816.44;;;15.31;100.00
29907;BME280;16776;50.958;10.994;2022-10-13T10:02:38;98817.28;;;15.52;100.00
29907;BME280;16776;50.958;10.994;2022-10-13T10:05:18;98818.72;;;15.78;100.00
29907;BME280;16776;50.958;10.994;2022-10-13T10:07:47;98814.16;;;15.83;100.00
29907;BME280;16776;50.958;10.994;2022-10-13T10:10:24;98811.84;;;15.96;100.00
29907;BME280;16776;50.958;10.994;2022-10-13T10:12:52;98809.31;;;15.94;100.00
29907;BME280;16776;50.958;10.994;2022-10-13T10:15:23;98807.38;;;15.99;100.00
29907;BME280;16776;50.958;10.994;2022-10-13T10:17:54;98800.34;;;16.01;100.00
29907;BME280;16776;50.958;10.994;2022-10-13T10:20:36;98800.06;;;16.07;100.00
29907;BME280;16776;50.958;10.994;2022-10-13T10:23:10;98796.53;;;16.08;100.00
29907;BME280;16776;50.958;10.994;2022-10-13T10:25:42;98795.31;;;16.17;100.00
29907;BME280;16776;50.958;10.994;2022-10-13T10:28:20;98794.81;;;16.28;100.00
29907;BME280;16776;50.958;10.994;2022-10-13T10:30:55;98791.06;;;16.33;100.00
29907;BME280;16776;50.958;10.994;2022-10-13T10:33:31;98788.66;;;16.47;100.00
29907;BME280;16776;50.958;10.994;2022-10-13T10:36:06;98789.75;;;16.60;100.00
29907;BME280;16776;50.958;10.994;2022-10-13T10:38:44;98783.09;;;16.72;100.00
29907;BME280;16776;50.958;10.994;2022-10-13T10:41:25;98777.81;;;16.91;100.00
29907;BME280;16776;50.958;10.994;2022-10-13T10:43:59;98767.84;;;17.01;100.00
29907;BME280;16776;50.958;10.994;2022-10-13T10:46:28;98762.94;;;17.12;100.00
29907;BME280;16776;50.958;10.994;2022-10-13T10:48:59;98769.19;;;17.25;100.00
29907;BME280;16776;50.958;10.994;2022-10-13T10:51:30;98771.16;;;17.37;100.00
29907;BME280;16776;50.958;10.994;2022-10-13T10:54:05;98770.69;;;17.46;100.00
29907;BME280;16776;50.958;10.994;2022-10-13T10:56:38;98759.31;;;17.47;99.61
29907;BME280;16776;50.958;10.994;2022-10-13T10:59:16;98766.13;;;17.50;98.88
29907;BME280;16776;50.958;10.994;2022-10-13T11:01:51;98763.09;;;17.42;98.95
29907;BME280;16776;50.958;10.994;2022-10-13T11:04:33;98764.19;;;17.37;98.65
29907;BME280;16776;50.958;10.994;2022-10-13T11:07:01;98758.00;;;17.23;98.44
29907;BME280;16776;50.958;10.994;2022-10-13T11:15:52;98746.41;;;17.13;99.04
29907;BME280;16776;50.958;10.994;2022-10-13T11:18:58;98744.66;;;17.29;99.12
29907;BME280;16776;50.958;10.994;2022-10-13T11:24:53;98729.88;;;17.47;99.82
29907;BME280;16776;50.958;10.994;2022-10-13T11:27:41;98737.03;;;17.59;98.62
29907;BME280;16776;50.958;10.994;2022-10-13T11:30:38;98725.34;;;17.66;98.38
29907;BME280;16776;50.958;10.994;2022-10-13T11:33:31;98725.78;;;17.74;98.68
29907;BME280;16776;50.958;10.994;2022-10-13T11:39:06;98736.97;;;17.76;96.78
29907;BME280;16776;50.958;10.994;2022-10-13T11:41:43;98734.44;;;17.74;96.48
29907;BME280;16776;50.958;10.994;2022-10-13T11:44:16;98719.31;;;17.65;96.55
29907;BME280;16776;50.958;10.994;2022-10-13T11:46:54;98721.56;;;17.71;96.71
29907;BME280;16776;50.958;10.994;2022-10-13T11:49:45;98713.75;;;17.71;96.23
29907;BME280;16776;50.958;10.994;2022-10-13T11:52:28;98718.19;;;17.69;97.03
29907;BME280;16776;50.958;10.994;2022-10-13T11:55:03;98712.06;;;17.70;96.97
29907;BME280;16776;50.958;10.994;2022-10-13T11:57:31;98710.25;;;17.72;96.50
29907;BME280;16776;50.958;10.994;2022-10-13T11:59:58;98712.69;;;17.75;95.67
29907;BME280;16776;50.958;10.994;2022-10-13T12:02:26;98700.50;;;17.76;95.88
29907;BME280;16776;50.958;10.994;2022-10-13T12:05:05;98699.16;;;17.85;95.74
29907;BME280;16776;50.958;10.994;2022-10-13T12:07:35;98701.34;;;17.76;96.36
29907;BME280;16776;50.958;10.994;2022-10-13T12:10:05;98701.16;;;17.79;96.18
29907;BME280;16776;50.958;10.994;2022-10-13T12:12:33;98692.63;;;17.77;96.36
29907;BME280;16776;50.958;10.994;2022-10-13T12:15:00;98701.09;;;17.81;96.05
29907;BME280;16776;50.958;10.994;2022-10-13T12:17:28;98701.59;;;17.88;96.18
29907;BME280;16776;50.958;10.994;2022-10-13T12:19:57;98696.66;;;17.83;95.36
29907;BME280;16776;50.958;10.994;2022-10-13T12:22:26;98696.38;;;17.88;95.25
29907;BME280;16776;50.958;10.994;2022-10-13T12:24:57;98695.53;;;17.87;94.96
29907;BME280;16776;50.958;10.994;2022-10-13T12:27:25;98688.25;;;17.78;94.92
29907;BME280;16776;50.958;10.994;2022-10-13T12:29:52;98696.28;;;17.73;94.52
29907;BME280;16776;50.958;10.994;2022-10-13T12:32:19;98697.44;;;17.68;94.37
29907;BME280;16776;50.958;10.994;2022-10-13T12:34:46;98692.66;;;17.60;94.49
29907;BME280;16776;50.958;10.994;2022-10-13T12:37:20;98697.13;;;17.58;95.00
29907;BME280;16776;50.958;10.994;2022-10-13T12:39:52;98691.72;;;17.46;94.55
29907;BME280;16776;50.958;10.994;2022-10-13T12:42:24;98683.31;;;17.40;94.88
29907;BME280;16776;50.958;10.994;2022-10-13T12:44:52;98683.97;;;17.28;95.21
29907;BME280;16776;50.958;10.994;2022-10-13T12:47:36;98676.84;;;17.32;95.11
29907;BME280;16776;50.958;10.994;2022-10-13T12:50:36;98683.81;;;17.31;95.17
29907;BME280;16776;50.958;10.994;2022-10-13T12:53:09;98681.03;;;17.19;95.41
29907;BME280;16776;50.958;10.994;2022-10-13T12:55:47;98680.25;;;17.17;95.75
29907;BME280;16776;50.958;10.994;2022-10-13T12:58:18;98671.91;;;17.10;95.44
29907;BME280;16776;50.958;10.994;2022-10-13T13:00:54;98667.63;;;17.09;95.31
29907;BME280;16776;50.958;10.994;2022-10-13T13:03:25;98664.50;;;17.03;95.05
29907;BME280;16776;50.958;10.994;2022-10-13T13:06:07;98659.16;;;17.06;94.64
29907;BME280;16776;50.958;10.994;2022-10-13T13:08:34;98660.69;;;16.92;95.40
29907;BME280;16776;50.958;10.994;2022-10-13T13:11:04;98656.25;;;16.94;95.16
29907;BME280;16776;50.958;10.994;2022-10-13T13:13:32;98655.72;;;16.88;95.21
29907;BME280;16776;50.958;10.994;2022-10-13T13:16:12;98653.59;;;16.96;94.70
29907;BME280;16776;50.958;10.994;2022-10-13T13:18:39;98645.72;;;16.80;94.77